KCEC/CEC METAR and TAF weather

Enter ICAO airport designator
Station Type Date Time Source
KCEC METAR 2019/10/12 21:56 UTC NOAA

KCEC 122156Z AUTO 33004KT 10SM CLR 14/07 A2995 RMK AO2 SLP141 T01390072


Station Type Date Time Source
KCEC Decoded METAR 2019/10/12 21:56 UTC NOAA

CRESCENT CITY MC NAMARA, CA, United States (KCEC) 41-47N 124-14W
Oct 12, 2019 - 05:56 PM EDT / 2019.10.12 2156 UTC
Wind: from the NNW (330 degrees) at 5 MPH (4 KT):0
Visibility: 10 mile(s):0
Sky conditions: clear
Temperature: 57.0 F (13.9 C)
Dew Point: 45.0 F (7.2 C)
Relative Humidity: 63%
Pressure (altimeter): 29.95 in. Hg (1014 hPa)
ob: KCEC 122156Z AUTO 33004KT 10SM CLR 14/07 A2995 RMK AO2 SLP141 T01390072
cycle: 22

Station Type Date Time Source
KCEC TAF 2019/10/15 06:30 UTC NOAA

TAF KCEC 150528Z 1506/1606 13004KT 1/4SM FG OVC001
TEMPO 1508/1512 1/2SM FG OVC002
FM151500 15003KT 2SM BR OVC003
FM151800 15008KT 6SM BR OVC005
FM152100 19007KT P6SM SCT006 BKN250
FM160000 17005KT 3SM BR BKN007

Example: see airport list